Time;durP1;ratioP1;P1;durP2;ratioP2;P2;SDS_P1;SDS_P2;PMS_P1;PMS_P2;Temp;Humidity;BMP_temperature;BMP_pressure;BME280_temperature;BME280_humidity;BME280_pressure;Samples;Min_cycle;Max_cycle;Signal;HPM_P1;HPM_P2
2022/01/29 00:02:25;;;;;;;74.80;27.33;;;;;;;2.52;68.85;102144.44;5053895;28;20075;-68
2022/01/29 00:05:10;;;;;;;57.40;27.33;;;;;;;2.62;69.45;102157.31;5054729;28;20294;-67
2022/01/29 00:07:55;;;;;;;79.78;33.80;;;;;;;2.81;69.79;102152.72;5058776;28;20052;-66
2022/01/29 00:10:42;;;;;;;73.68;27.80;;;;;;;2.82;68.83;102151.66;5056354;28;20048;-67
2022/01/29 00:13:27;;;;;;;84.30;37.13;;;;;;;2.92;69.04;102152.75;5018800;28;20520;-66
2022/01/29 00:16:12;;;;;;;66.20;29.00;;;;;;;2.40;68.31;102138.19;5012500;28;20048;-68
2022/01/29 00:18:57;;;;;;;62.58;27.45;;;;;;;2.53;69.20;102135.34;5019274;28;20049;-67
2022/01/29 00:21:42;;;;;;;62.65;24.88;;;;;;;2.58;68.45;102145.41;5022535;28;20048;-67
2022/01/29 00:24:27;;;;;;;55.03;25.02;;;;;;;2.30;68.62;102158.53;5036766;28;20052;-67
2022/01/29 00:27:12;;;;;;;56.10;23.20;;;;;;;1.97;70.17;102142.84;5039024;28;20048;-67
2022/01/29 00:29:58;;;;;;;52.08;24.65;;;;;;;1.73;72.10;102150.69;5031939;28;20052;-67
2022/01/29 00:32:43;;;;;;;71.60;29.75;;;;;;;1.95;71.97;102155.63;5045687;28;20056;-68
2022/01/29 00:35:28;;;;;;;50.92;24.17;;;;;;;2.21;71.61;102151.84;5053868;28;20052;-67
2022/01/29 00:38:13;;;;;;;61.17;26.50;;;;;;;2.34;70.66;102160.56;5058532;28;20052;-68
2022/01/29 00:40:57;;;;;;;62.65;23.60;;;;;;;2.24;67.21;102167.47;5053369;28;20056;-68
2022/01/29 00:43:43;;;;;;;63.72;26.10;;;;;;;1.76;69.27;102159.34;5043371;28;20048;-68
2022/01/29 00:46:29;;;;;;;66.57;27.02;;;;;;;1.66;70.75;102152.63;5038369;28;20072;-68
2022/01/29 00:49:14;;;;;;;83.97;34.45;;;;;;;1.67;71.53;102148.91;5038337;28;20056;-68
2022/01/29 00:51:59;;;;;;;79.53;34.72;;;;;;;1.65;70.80;102148.31;5037070;28;20056;-68
2022/01/29 00:54:45;;;;;;;71.05;25.90;;;;;;;1.41;71.10;102164.41;5035678;28;20405;-68
2022/01/29 00:57:31;;;;;;;80.38;34.47;;;;;;;1.43;71.48;102173.84;5038327;28;20056;-68
2022/01/29 01:00:17;;;;;;;76.22;33.05;;;;;;;0.78;71.84;102173.28;5038286;28;20075;-68
2022/01/29 01:03:01;;;;;;;79.13;33.95;;;;;;;0.70;73.94;102165.50;5040717;28;20056;-68
2022/01/29 01:05:46;;;;;;;56.85;25.48;;;;;;;1.29;72.91;102166.97;5052757;28;20052;-68
2022/01/29 01:08:32;;;;;;;56.65;23.52;;;;;;;1.37;71.26;102166.72;5058249;28;20056;-68
2022/01/29 01:11:16;;;;;;;54.88;23.73;;;;;;;1.54;71.56;102175.81;5056633;28;20123;-68
2022/01/29 01:14:01;;;;;;;59.90;23.98;;;;;;;1.54;71.36;102188.41;5053890;28;20052;-67
2022/01/29 01:16:46;;;;;;;63.42;26.45;;;;;;;1.43;70.96;102195.28;5042256;28;20400;-68
2022/01/29 01:19:32;;;;;;;53.75;23.45;;;;;;;1.35;71.31;102190.22;5042176;28;20057;-68
2022/01/29 01:22:16;;;;;;;;;;;;;;;1.33;71.57;102184.25;5042557;28;20052;-68
2022/01/29 01:25:01;;;;;;;61.38;26.83;;;;;;;1.04;70.12;102191.03;5036064;28;19913;-68
2022/01/29 01:27:46;;;;;;;55.08;25.73;;;;;;;1.18;70.03;102189.09;5039721;28;20051;-66
2022/01/29 01:30:32;;;;;;;48.90;21.42;;;;;;;1.27;70.11;102193.97;5042081;28;20406;-67
2022/01/29 01:33:17;;;;;;;71.32;28.50;;;;;;;1.49;68.43;102185.56;5041051;28;20068;-66
2022/01/29 01:36:06;;;;;;;50.53;23.02;;;;;;;1.37;68.74;102184.66;5050063;28;20052;-66
2022/01/29 01:39:01;;;;;;;63.78;26.95;;;;;;;1.54;70.38;102180.38;5053903;28;20044;-67
2022/01/29 01:41:58;;;;;;;57.95;21.75;;;;;;;1.12;67.98;102177.38;5041097;28;20057;-67
2022/01/29 01:44:46;;;;;;;64.63;28.65;;;;;;;1.53;67.07;102184.06;5039545;28;20508;-67
2022/01/29 01:47:31;;;;;;;69.35;27.33;;;;;;;1.62;70.76;102174.75;5056793;28;20064;-67
2022/01/29 01:50:16;;;;;;;53.08;22.60;;;;;;;1.72;68.93;102172.38;5060668;28;20052;-67
2022/01/29 01:53:03;;;;;;;50.33;23.20;;;;;;;1.72;67.68;102164.34;5061328;28;20048;-67
2022/01/29 01:55:48;;;;;;;67.55;28.83;;;;;;;1.80;66.89;102157.84;5054328;28;20052;-68
2022/01/29 01:58:33;;;;;;;72.18;27.65;;;;;;;1.62;66.29;102147.94;5060344;28;20044;-68
2022/01/29 02:01:19;;;;;;;48.10;20.92;;;;;;;1.33;68.23;102152.09;5058604;28;20052;-69
2022/01/29 02:04:04;;;;;;;55.00;26.63;;;;;;;1.32;68.39;102153.16;5056389;28;20055;-66
2022/01/29 02:06:53;;;;;;;64.72;27.33;;;;;;;1.03;68.07;102143.88;5053036;28;20055;-67
2022/01/29 02:09:39;;;;;;;74.82;29.70;;;;;;;0.78;69.58;102143.81;5041359;28;20048;-66
2022/01/29 02:12:27;;;;;;;63.80;29.92;;;;;;;0.51;70.24;102128.94;5036340;28;20405;-67
2022/01/29 02:15:13;;;;;;;62.20;27.75;;;;;;;0.73;70.44;102129.44;5034206;28;20056;-67
2022/01/29 02:17:58;;;;;;;68.78;27.73;;;;;;;0.71;69.31;102132.31;5051781;28;20789;-67
2022/01/29 02:20:43;;;;;;;;;;;;;;;0.64;72.60;102136.91;5036850;28;20060;-67
2022/01/29 02:23:28;;;;;;;61.35;26.80;;;;;;;0.95;70.20;102127.25;5034215;28;19916;-67
2022/01/29 02:26:13;;;;;;;51.20;20.60;;;;;;;1.16;71.76;102132.25;5030707;28;20045;-67
2022/01/29 02:28:58;;;;;;;49.83;20.95;;;;;;;1.10;69.71;102127.75;5033186;28;20040;-67
2022/01/29 02:31:54;;;;;;;54.67;20.13;;;;;;;0.89;70.35;102141.50;5036906;28;20044;-67
2022/01/29 02:34:40;;;;;;;59.85;25.55;;;;;;;1.14;70.52;102139.66;5042887;28;20060;-68
2022/01/29 02:37:25;;;;;;;61.53;23.98;;;;;;;1.12;70.11;102145.25;5036898;28;20501;-67
2022/01/29 02:40:10;;;;;;;50.70;20.20;;;;;;;1.32;69.44;102138.94;5034161;28;20413;-67
2022/01/29 02:42:56;;;;;;;42.50;17.23;;;;;;;1.25;68.92;102141.66;5038060;28;20052;-67
2022/01/29 02:45:42;;;;;;;48.97;20.23;;;;;;;1.14;68.68;102142.34;5035286;28;20048;-67
2022/01/29 02:48:27;;;;;;;59.03;23.70;;;;;;;0.89;68.62;102142.31;5035225;28;20053;-68
2022/01/29 02:51:12;;;;;;;37.33;15.73;;;;;;;0.95;69.82;102137.97;5037782;28;20044;-67
2022/01/29 02:53:57;;;;;;;35.88;16.48;;;;;;;0.75;68.43;102144.28;5035471;28;20076;-67
2022/01/29 02:56:42;;;;;;;36.70;16.80;;;;;;;0.98;68.37;102140.19;5034127;28;20048;-67
2022/01/29 02:59:27;;;;;;;47.97;21.10;;;;;;;1.41;67.76;102142.97;5039072;28;20056;-67
2022/01/29 03:02:12;;;;;;;30.25;14.60;;;;;;;1.14;66.43;102153.06;5053588;28;20519;-67
2022/01/29 03:04:57;;;;;;;33.70;14.77;;;;;;;1.61;64.48;102139.06;5037049;28;20049;-67
2022/01/29 03:07:42;;;;;;;27.98;13.02;;;;;;;1.39;64.50;102132.47;5038278;28;20049;-67
2022/01/29 03:10:28;;;;;;;40.40;15.85;;;;;;;1.18;64.67;102124.81;5035875;28;20048;-67
2022/01/29 03:13:14;;;;;;;48.13;19.42;;;;;;;0.92;67.06;102127.66;5034154;28;20069;-69
2022/01/29 03:15:59;;;;;;;43.20;19.00;;;;;;;1.35;68.70;102139.31;5046106;28;20076;-68
2022/01/29 03:18:44;;;;;;;34.55;15.10;;;;;;;1.38;65.83;102133.50;5055913;28;20047;-69
2022/01/29 03:21:29;;;;;;;26.52;13.13;;;;;;;1.43;66.06;102136.34;5054265;28;20067;-68
2022/01/29 03:24:14;;;;;;;36.53;15.95;;;;;;;1.69;65.13;102125.38;5057780;28;20044;-68
2022/01/29 03:26:59;;;;;;;30.63;13.50;;;;;;;1.88;64.76;102120.03;5052651;28;20063;-69
2022/01/29 03:29:44;;;;;;;35.42;16.38;;;;;;;2.04;63.88;102111.38;5054432;28;20052;-68
2022/01/29 03:32:29;;;;;;;40.03;16.63;;;;;;;1.95;62.95;102108.19;5037606;28;20045;-69
2022/01/29 03:35:16;;;;;;;38.83;17.10;;;;;;;1.69;64.24;102109.28;5035428;28;20049;-68
2022/01/29 03:38:00;;;;;;;54.42;21.67;;;;;;;1.90;62.99;102104.53;5047680;28;20512;-69
2022/01/29 03:40:48;;;;;;;43.38;14.25;;;;;;;1.82;64.23;102110.19;5051669;28;20060;-68
2022/01/29 03:43:40;;;;;;;48.25;18.98;;;;;;;2.08;62.87;102115.28;5035744;28;20045;-68
2022/01/29 03:46:25;;;;;;;39.97;18.63;;;;;;;1.94;63.31;102106.53;5041756;28;20041;-69
2022/01/29 03:49:11;;;;;;;28.40;13.63;;;;;;;1.81;64.58;102113.91;5019720;28;20056;-69
2022/01/29 03:51:55;;;;;;;;;;;;;;;1.78;65.59;102128.56;5020110;28;20049;-69
2022/01/29 03:54:40;;;;;;;52.60;19.42;;;;;;;1.56;65.13;102120.16;5030222;28;19917;-69
2022/01/29 03:57:25;;;;;;;26.63;13.50;;;;;;;1.49;66.52;102113.19;5059134;28;20047;-70
2022/01/29 04:00:11;;;;;;;34.60;15.65;;;;;;;1.83;64.80;102120.69;5054641;28;20059;-69
2022/01/29 04:02:56;;;;;;;52.88;19.48;;;;;;;1.73;67.63;102130.31;5032611;28;20052;-71
2022/01/29 04:05:41;;;;;;;44.13;16.60;;;;;;;1.45;65.61;102128.91;5033719;28;20410;-72
2022/01/29 04:08:26;;;;;;;36.20;15.30;;;;;;;1.53;65.46;102131.28;5035880;28;20060;-70
2022/01/29 04:11:13;;;;;;;33.22;14.73;;;;;;;1.71;64.25;102134.03;5034487;28;20052;-69
2022/01/29 04:13:58;;;;;;;37.53;17.15;;;;;;;1.79;63.58;102135.59;5038000;28;20053;-69
2022/01/29 04:16:44;;;;;;;30.85;11.15;;;;;;;1.68;59.91;102118.38;5038906;28;20064;-69
2022/01/29 04:19:29;;;;;;;40.42;13.13;;;;;;;1.78;57.78;102120.53;5047469;28;20693;-69
2022/01/29 04:22:14;;;;;;;17.90;7.10;;;;;;;1.77;58.19;102120.78;5058567;28;20503;-69
2022/01/29 04:24:59;;;;;;;21.83;9.43;;;;;;;1.81;57.15;102112.06;5054883;28;20051;-69
2022/01/29 04:27:46;;;;;;;12.95;6.22;;;;;;;1.89;55.41;102109.06;5058599;28;20052;-70
2022/01/29 04:30:40;;;;;;;16.17;8.55;;;;;;;1.87;53.97;102115.72;5012618;28;20044;-69
2022/01/29 04:33:31;;;;;;;24.92;8.73;;;;;;;1.82;54.22;102108.34;5018635;28;20057;-69
2022/01/29 04:36:15;;;;;;;17.30;7.50;;;;;;;1.43;54.77;102114.06;5012176;28;20044;-69
2022/01/29 04:39:00;;;;;;;16.83;6.43;;;;;;;1.39;54.41;102119.06;5018536;28;20060;-69
2022/01/29 04:41:45;;;;;;;11.15;4.78;;;;;;;1.46;54.36;102119.00;5018725;28;20052;-69
2022/01/29 04:44:30;;;;;;;6.22;2.97;;;;;;;1.34;53.64;102112.72;5015824;28;20049;-70
2022/01/29 04:47:15;;;;;;;7.10;3.03;;;;;;;1.31;53.18;102122.03;5018996;28;20064;-69
2022/01/29 04:50:00;;;;;;;6.55;2.85;;;;;;;1.20;53.69;102115.53;5048800;28;20051;-69
2022/01/29 04:52:45;;;;;;;7.35;3.67;;;;;;;1.11;53.67;102111.47;5054879;28;20063;-68
2022/01/29 04:55:31;;;;;;;9.70;3.67;;;;;;;1.08;54.14;102103.88;5052560;28;20119;-68
2022/01/29 04:58:16;;;;;;;8.60;4.07;;;;;;;1.20;52.98;102095.94;5056994;28;20051;-68
2022/01/29 05:01:03;;;;;;;6.65;2.80;;;;;;;1.28;52.14;102095.66;5039045;28;20054;-68
2022/01/29 05:03:47;;;;;;;10.13;3.85;;;;;;;1.20;52.60;102101.31;5033321;28;20117;-68
2022/01/29 05:06:32;;;;;;;6.35;2.83;;;;;;;1.12;52.95;102098.88;5038796;28;20049;-68
2022/01/29 05:09:17;;;;;;;7.13;2.70;;;;;;;1.10;53.04;102104.47;5036360;28;20056;-68
2022/01/29 05:12:03;;;;;;;6.78;2.58;;;;;;;1.14;52.84;102091.47;5014016;28;20056;-68
2022/01/29 05:26:55;;;;;;;9.48;3.42;;;;;;;1.56;50.12;102098.72;5033277;28;20045;-68
2022/01/29 05:29:40;;;;;;;12.68;2.97;;;;;;;1.54;50.23;102103.47;5036157;28;20048;-68
2022/01/29 05:32:25;;;;;;;5.38;2.25;;;;;;;1.53;49.76;102104.50;5035673;28;20655;-68
2022/01/29 05:35:10;;;;;;;4.43;2.03;;;;;;;1.38;50.25;102106.69;5035389;28;20620;-68
2022/01/29 05:37:56;;;;;;;6.30;2.35;;;;;;;1.32;50.91;102107.59;5036806;28;20052;-68
2022/01/29 05:40:40;;;;;;;6.90;2.63;;;;;;;1.56;50.11;102109.44;5036072;28;20137;-68
2022/01/29 05:43:25;;;;;;;7.53;3.05;;;;;;;1.40;50.29;102106.47;5032306;28;20048;-68
2022/01/29 05:46:11;;;;;;;6.13;2.40;;;;;;;1.45;50.69;102117.38;5030557;28;20056;-68
2022/01/29 05:48:56;;;;;;;6.68;3.13;;;;;;;1.48;50.17;102112.38;5034937;28;20048;-68
2022/01/29 05:51:41;;;;;;;4.90;2.65;;;;;;;1.52;49.85;102118.97;5033154;28;20037;-68
2022/01/29 05:54:26;;;;;;;3.80;2.22;;;;;;;1.34;52.37;102134.97;5029894;28;20113;-68
2022/01/29 05:57:11;;;;;;;5.43;2.88;;;;;;;1.13;53.48;102146.88;5037566;28;20052;-68
2022/01/29 05:59:56;;;;;;;7.35;2.78;;;;;;;1.04;54.97;102150.03;5037479;28;20052;-68
2022/01/29 06:02:41;;;;;;;4.63;2.63;;;;;;;0.99;53.49;102149.88;5043128;28;20512;-68
2022/01/29 06:05:26;;;;;;;5.70;2.30;;;;;;;1.01;53.12;102151.31;5038959;28;20041;-68
2022/01/29 06:08:11;;;;;;;14.02;5.20;;;;;;;1.13;55.72;102154.09;5037213;28;20052;-68
2022/01/29 06:10:56;;;;;;;9.88;4.10;;;;;;;1.36;54.28;102150.84;5040779;28;20403;-68
2022/01/29 06:13:41;;;;;;;9.50;3.75;;;;;;;1.01;55.01;102154.00;5042294;28;20052;-68
2022/01/29 06:16:27;;;;;;;12.75;4.97;;;;;;;1.07;56.76;102163.81;5039174;28;20045;-68
2022/01/29 06:19:12;;;;;;;15.52;6.97;;;;;;;0.91;57.05;102168.88;5040574;28;20044;-68
2022/01/29 06:21:57;;;;;;;18.30;5.35;;;;;;;0.96;58.05;102169.06;5040185;28;20041;-68
2022/01/29 06:24:42;;;;;;;21.98;9.48;;;;;;;0.58;59.87;102179.75;5040168;28;20508;-68
2022/01/29 06:27:27;;;;;;;12.55;5.63;;;;;;;0.56;58.31;102187.19;5045192;28;20559;-68
2022/01/29 06:30:13;;;;;;;17.85;8.07;;;;;;;0.12;62.02;102194.13;5030338;28;20053;-68
2022/01/29 06:33:09;;;;;;;27.98;12.80;;;;;;;0.13;64.26;102197.63;5035394;28;20052;-68
2022/01/29 06:35:54;;;;;;;40.05;17.10;;;;;;;0.03;66.23;102194.56;5036004;28;20049;-67
2022/01/29 06:38:39;;;;;;;32.15;14.18;;;;;;;-0.08;68.27;102193.34;5048801;28;20067;-68
2022/01/29 06:41:24;;;;;;;34.15;15.25;;;;;;;-0.12;68.79;102190.28;5054362;28;20485;-68
2022/01/29 06:44:09;;;;;;;36.90;14.93;;;;;;;-0.26;69.47;102194.00;5037460;28;20037;-68
2022/01/29 06:46:54;;;;;;;31.30;15.57;;;;;;;-0.37;70.05;102207.16;5036748;28;20045;-67
2022/01/29 06:49:39;;;;;;;34.13;16.45;;;;;;;-0.34;70.07;102212.06;5037325;28;20045;-68
2022/01/29 06:52:24;;;;;;;44.28;17.52;;;;;;;-0.24;69.89;102212.47;5039455;28;20045;-68
2022/01/29 06:55:09;;;;;;;39.05;17.67;;;;;;;-0.30;70.22;102214.13;5037605;28;20042;-68
2022/01/29 06:57:54;;;;;;;30.45;14.07;;;;;;;-0.11;69.86;102207.13;5031573;28;20041;-68
2022/01/29 07:00:39;;;;;;;31.17;13.25;;;;;;;-0.12;70.22;102208.16;5033618;28;20033;-68
2022/01/29 07:03:24;;;;;;;28.00;14.10;;;;;;;-0.10;70.09;102198.88;5038475;28;20037;-68
2022/01/29 07:06:09;;;;;;;28.85;14.35;;;;;;;0.11;69.07;102202.34;5033736;28;20045;-68
2022/01/29 07:08:54;;;;;;;32.45;15.75;;;;;;;0.04;69.48;102199.72;5035134;28;20504;-68
2022/01/29 07:11:42;;;;;;;30.70;15.52;;;;;;;0.17;69.28;102198.84;5056143;28;20085;-68
2022/01/29 07:14:29;;;;;;;45.80;19.48;;;;;;;-0.08;69.56;102206.72;5056639;28;20241;-67
2022/01/29 07:17:17;;;;;;;39.50;18.50;;;;;;;-0.19;70.57;102213.50;5052894;28;20045;-68
2022/01/29 07:20:04;;;;;;;39.05;19.15;;;;;;;0.07;68.93;102214.50;5042865;28;20041;-68
2022/01/29 07:22:49;;;;;;;37.47;18.38;;;;;;;0.02;69.85;102220.47;5036318;28;20056;-68
2022/01/29 07:25:34;;;;;;;26.48;13.10;;;;;;;0.14;70.09;102232.19;5034330;28;20044;-68
2022/01/29 07:28:19;;;;;;;33.33;15.95;;;;;;;0.14;69.97;102242.06;5037530;28;20048;-68
2022/01/29 07:31:04;;;;;;;28.08;15.38;;;;;;;-0.05;71.10;102249.06;5039441;28;20056;-66
2022/01/29 07:33:49;;;;;;;31.17;14.75;;;;;;;0.10;70.35;102235.50;5039050;28;20041;-67
2022/01/29 07:36:34;;;;;;;34.80;18.00;;;;;;;0.17;70.45;102241.63;5039398;28;20073;-67
2022/01/29 07:39:21;;;;;;;41.03;17.63;;;;;;;0.28;69.88;102249.84;5039648;28;20119;-67
2022/01/29 07:42:06;;;;;;;45.53;20.83;;;;;;;0.35;69.49;102249.84;5039633;28;20045;-66
2022/01/29 07:44:51;;;;;;;;;;;;;;;0.64;69.17;102262.72;5037289;28;20116;-67
2022/01/29 07:47:36;;;;;;;35.95;19.08;;;;;;;0.60;69.00;102260.66;5039653;28;19912;-66
2022/01/29 07:50:22;;;;;;;34.95;17.35;;;;;;;0.31;70.76;102260.13;5039440;28;20052;-67
2022/01/29 07:53:07;;;;;;;37.08;19.40;;;;;;;0.61;69.33;102271.16;5039342;28;20048;-67
2022/01/29 07:55:52;;;;;;;33.20;16.67;;;;;;;0.84;69.31;102273.34;5033657;28;20521;-67
2022/01/29 07:58:37;;;;;;;30.00;14.57;;;;;;;1.01;68.87;102266.47;5039584;28;20048;-67
2022/01/29 08:01:24;;;;;;;42.50;18.65;;;;;;;1.32;67.66;102270.22;5039283;28;20399;-67
2022/01/29 08:04:09;;;;;;;45.90;20.40;;;;;;;1.54;67.56;102279.53;5038261;28;20044;-66
2022/01/29 08:06:54;;;;;;;34.78;17.05;;;;;;;1.52;68.15;102279.78;5039099;28;20048;-67
2022/01/29 08:09:39;;;;;;;51.20;21.00;;;;;;;1.65;67.28;102285.03;5038996;28;20056;-67
2022/01/29 08:12:24;;;;;;;40.83;18.55;;;;;;;1.84;67.50;102288.59;5039014;28;20064;-67
2022/01/29 08:15:13;;;;;;;41.08;17.38;;;;;;;2.12;67.05;102280.13;5032376;28;20052;-66
2022/01/29 08:18:01;;;;;;;55.65;23.80;;;;;;;2.35;66.29;102272.25;5038774;28;20052;-67
2022/01/29 08:21:07;;;;;;;59.08;23.67;;;;;;;2.25;67.01;102279.97;5039037;28;20056;-67
2022/01/29 08:23:52;;;;;;;41.85;19.02;;;;;;;2.30;67.89;102261.34;5038586;28;20048;-67
2022/01/29 08:26:58;;;;;;;46.80;17.05;;;;;;;2.66;66.90;102265.91;5032513;28;20057;-67
2022/01/29 08:30:23;;;;;;;40.00;16.73;;;;;;;2.90;66.09;102261.47;5038965;28;20045;-67
2022/01/29 08:33:11;;;;;;;39.95;16.38;;;;;;;2.77;66.52;102256.28;5038650;28;20078;-67
2022/01/29 08:35:58;;;;;;;42.00;22.70;;;;;;;3.05;66.39;102259.22;5032783;28;20532;-67
2022/01/29 08:39:04;;;;;;;36.75;17.75;;;;;;;3.22;66.01;102264.78;5037905;28;20056;-67
2022/01/29 08:41:50;;;;;;;51.55;21.05;;;;;;;3.36;63.53;102272.44;5038574;28;20049;-67
2022/01/29 08:44:36;;;;;;;47.40;18.85;;;;;;;3.28;64.09;102262.00;5035465;28;20056;-67
2022/01/29 08:47:50;;;;;;;43.80;17.23;;;;;;;3.29;63.66;102268.22;5038534;28;20052;-67
2022/01/29 08:50:36;;;;;;;40.33;19.73;;;;;;;3.20;63.26;102266.91;5038470;28;20048;-68
2022/01/29 08:53:21;;;;;;;42.05;18.10;;;;;;;3.20;62.31;102270.38;5038199;28;20401;-68
2022/01/29 08:56:09;;;;;;;43.13;17.90;;;;;;;3.94;60.67;102285.19;5031958;28;20045;-68
2022/01/29 08:58:54;;;;;;;48.67;19.75;;;;;;;3.97;61.01;102290.09;5033149;28;20052;-68
2022/01/29 09:01:40;;;;;;;33.38;15.50;;;;;;;4.28;57.02;102287.06;5032579;28;20045;-68
2022/01/29 09:04:25;;;;;;;27.88;12.70;;;;;;;3.77;57.34;102289.59;5026714;28;20048;-68
2022/01/29 09:07:12;;;;;;;32.38;13.73;;;;;;;3.83;57.44;102288.69;5038235;28;20044;-66
2022/01/29 09:09:59;;;;;;;33.30;16.15;;;;;;;4.01;55.83;102295.88;5037891;28;20508;-66
2022/01/29 09:12:47;;;;;;;34.63;16.40;;;;;;;3.98;54.85;102294.44;5037196;28;20418;-65
2022/01/29 09:15:34;;;;;;;40.08;18.20;;;;;;;3.96;56.81;102277.72;5033549;28;20409;-66
2022/01/29 09:18:19;;;;;;;61.58;16.00;;;;;;;4.12;55.17;102292.34;5038092;28;20064;-66
2022/01/29 09:21:06;;;;;;;20.95;10.65;;;;;;;4.35;56.18;102291.53;5051531;28;20076;-65
2022/01/29 09:24:12;;;;;;;33.30;15.45;;;;;;;4.43;54.70;102283.91;5056578;28;20048;-66
2022/01/29 09:27:00;;;;;;;129.32;18.55;;;;;;;4.42;55.27;102281.47;5056926;28;20064;-65
2022/01/29 09:29:50;;;;;;;33.92;13.75;;;;;;;4.51;52.67;102280.03;5048582;28;20037;-66
2022/01/29 09:32:35;;;;;;;30.35;13.02;;;;;;;4.50;53.11;102281.09;5023871;28;20072;-66
2022/01/29 09:35:20;;;;;;;24.83;13.13;;;;;;;4.74;52.48;102282.69;5037556;28;20064;-66
2022/01/29 09:38:07;;;;;;;30.25;13.82;;;;;;;4.70;53.73;102281.53;5038232;28;20052;-66
2022/01/29 09:40:54;;;;;;;28.35;13.43;;;;;;;4.86;52.77;102282.66;5041870;28;20052;-65
2022/01/29 09:43:42;;;;;;;24.58;12.25;;;;;;;5.10;52.68;102276.97;5041725;28;20056;-66
2022/01/29 09:46:30;;;;;;;34.92;13.43;;;;;;;5.15;52.33;102279.75;5041796;28;20049;-66
2022/01/29 09:49:18;;;;;;;33.83;12.68;;;;;;;5.23;52.55;102270.47;5041822;28;20124;-65
2022/01/29 09:52:04;;;;;;;27.20;13.10;;;;;;;5.34;51.67;102266.88;5041723;28;20411;-66
2022/01/29 09:55:12;;;;;;;27.25;11.50;;;;;;;5.44;52.98;102258.16;5038137;28;20044;-66
2022/01/29 09:58:18;;;;;;;25.88;12.50;;;;;;;5.42;52.53;102255.72;5041914;28;20056;-66
2022/01/29 10:01:03;;;;;;;28.05;13.70;;;;;;;5.44;52.62;102260.84;5041444;28;20509;-66
2022/01/29 10:04:10;;;;;;;29.55;13.52;;;;;;;5.58;53.02;102259.50;5040828;28;20057;-66
2022/01/29 10:07:16;;;;;;;27.98;11.10;;;;;;;5.64;52.83;102263.91;5055528;28;20044;-66
2022/01/29 10:10:15;;;;;;;28.98;13.13;;;;;;;5.77;53.05;102252.81;5056065;28;20423;-67
2022/01/29 10:13:00;;;;;;;39.47;18.13;;;;;;;5.85;53.08;102244.28;5045921;28;20056;-68
2022/01/29 10:15:45;;;;;;;34.00;13.90;;;;;;;5.91;54.08;102248.72;5035987;28;20045;-68
2022/01/29 10:18:33;;;;;;;40.78;17.20;;;;;;;6.02;55.24;102244.31;5034898;28;20052;-68
2022/01/29 10:21:23;;;;;;;39.88;17.70;;;;;;;6.28;55.59;102248.19;5038061;28;20044;-67
2022/01/29 10:24:25;;;;;;;40.15;19.15;;;;;;;6.40;54.59;102243.50;5044402;28;20049;-67
2022/01/29 10:27:33;;;;;;;53.10;24.15;;;;;;;6.56;54.84;102239.94;5035321;28;20064;-68
2022/01/29 10:30:51;;;;;;;52.65;23.13;;;;;;;6.63;54.68;102240.56;5029480;28;20049;-68
2022/01/29 10:33:57;;;;;;;52.72;25.13;;;;;;;6.60;55.32;102234.84;5037401;28;20060;-68
2022/01/29 10:37:06;;;;;;;57.88;25.95;;;;;;;6.75;55.80;102237.75;5034666;28;20052;-68
2022/01/29 10:39:59;;;;;;;65.93;28.45;;;;;;;6.89;55.93;102239.00;5038664;28;20068;-67
2022/01/29 10:42:44;;;;;;;63.17;28.08;;;;;;;7.11;55.15;102228.16;5037772;28;20056;-67
2022/01/29 10:45:34;;;;;;;51.17;21.15;;;;;;;7.04;55.54;102227.53;5035264;28;20044;-68
2022/01/29 10:48:40;;;;;;;65.28;28.23;;;;;;;7.20;55.12;102216.63;5017381;28;20304;-68
2022/01/29 10:51:26;;;;;;;65.22;28.80;;;;;;;7.21;55.46;102203.91;5015792;28;20044;-68
2022/01/29 10:54:20;;;;;;;85.68;31.27;;;;;;;7.37;54.93;102205.66;5014176;28;20049;-68
2022/01/29 10:57:33;;;;;;;63.67;29.98;;;;;;;7.48;54.55;102193.84;5029745;28;20044;-68
2022/01/29 11:00:24;;;;;;;73.68;30.48;;;;;;;7.49;55.59;102187.38;5031908;28;20048;-67
2022/01/29 11:03:09;;;;;;;66.25;31.38;;;;;;;7.69;55.53;102184.81;5040733;28;20420;-68
2022/01/29 11:05:56;;;;;;;54.90;24.45;;;;;;;7.67;55.89;102178.00;5028480;28;20496;-68
2022/01/29 11:08:45;;;;;;;70.28;32.97;;;;;;;7.80;55.24;102176.75;5034083;28;20042;-68
2022/01/29 11:11:34;;;;;;;71.22;29.85;;;;;;;7.65;54.67;102178.28;5033425;28;20048;-67
2022/01/29 11:14:20;;;;;;;72.57;29.88;;;;;;;7.82;54.14;102174.63;5029079;28;20056;-69
2022/01/29 11:17:07;;;;;;;74.45;29.88;;;;;;;7.94;53.90;102165.22;5033935;28;20045;-69
2022/01/29 11:19:57;;;;;;;67.00;31.27;;;;;;;7.78;54.45;102159.94;5035261;28;20414;-69
2022/01/29 11:22:49;;;;;;;63.70;30.70;;;;;;;8.03;54.17;102158.22;5034709;28;20057;-69
2022/01/29 11:25:35;;;;;;;69.68;30.23;;;;;;;7.93;54.81;102144.63;5035441;28;20044;-69
2022/01/29 11:28:41;;;;;;;66.95;28.20;;;;;;;8.13;54.00;102130.34;5035606;28;20048;-69
2022/01/29 11:31:28;;;;;;;65.93;28.80;;;;;;;8.21;54.58;102137.19;5025636;28;20040;-69
2022/01/29 11:34:21;;;;;;;61.92;27.80;;;;;;;8.45;53.51;102132.97;5036276;28;20049;-69
2022/01/29 11:37:58;;;;;;;61.17;27.98;;;;;;;8.53;53.20;102119.69;5032529;28;20036;-68
2022/01/29 11:41:02;;;;;;;71.15;30.98;;;;;;;8.63;54.19;102123.53;5036475;28;20049;-69
2022/01/29 11:44:30;;;;;;;75.22;32.15;;;;;;;8.69;54.21;102133.28;5029540;28;20410;-69
2022/01/29 11:47:27;;;;;;;69.78;31.75;;;;;;;8.80;53.77;102121.38;5035614;28;20048;-69
2022/01/29 11:50:22;;;;;;;79.82;33.55;;;;;;;8.94;54.01;102123.31;5034047;28;20040;-69
2022/01/29 11:53:08;;;;;;;80.10;31.05;;;;;;;8.99;53.10;102122.50;5033963;28;20030;-69
2022/01/29 11:56:40;;;;;;;67.72;27.75;;;;;;;8.99;53.55;102114.34;5036686;28;20440;-69
2022/01/29 11:59:48;;;;;;;83.45;30.83;;;;;;;8.92;53.53;102108.41;5028839;28;20429;-69
2022/01/29 12:02:53;;;;;;;77.45;31.75;;;;;;;9.01;53.15;102098.63;5020678;28;20045;-69
2022/01/29 12:06:30;;;;;;;55.50;24.27;;;;;;;9.25;52.06;102097.00;5024345;28;20064;-69
2022/01/29 12:09:58;;;;;;;;;;;;;;;9.38;51.68;102093.75;5034073;28;20040;-69
2022/01/29 12:15:48;;;;;;;66.07;29.98;;;;;;;9.27;51.65;102075.84;5026742;23;20498;-77
2022/01/29 12:18:38;;;;;;;76.00;30.60;;;;;;;9.30;52.12;102079.91;4959047;28;20050;-76
2022/01/29 12:21:24;;;;;;;60.90;27.98;;;;;;;9.39;51.65;102078.28;4956258;28;20054;-76
2022/01/29 12:24:21;;;;;;;72.95;29.90;;;;;;;9.43;52.22;102072.03;4953603;28;20050;-76
2022/01/29 12:27:10;;;;;;;59.97;26.55;;;;;;;9.57;51.54;102057.88;4958149;28;20407;-77
2022/01/29 12:30:23;;;;;;;63.33;28.75;;;;;;;9.51;51.95;102048.09;4953520;28;20042;-74
2022/01/29 12:33:17;;;;;;;61.42;28.50;;;;;;;9.64;51.36;102051.06;4949034;28;20419;-76
2022/01/29 12:36:33;;;;;;;46.60;21.47;;;;;;;9.74;51.21;102048.31;4944788;28;20405;-76
2022/01/29 12:39:23;;;;;;;77.93;30.70;;;;;;;9.64;50.95;102042.94;4955290;28;20067;-75
2022/01/29 12:45:01;;;;;;;61.95;27.33;;;;;;;9.91;51.58;102034.38;4943056;28;20051;-75
2022/01/29 12:47:47;;;;;;;61.47;27.05;;;;;;;10.05;50.50;102037.34;4958318;28;20057;-75
2022/01/29 12:50:33;;;;;;;64.85;27.20;;;;;;;10.06;50.67;102034.31;4954467;28;20051;-75
2022/01/29 12:53:20;;;;;;;55.60;26.67;;;;;;;10.06;50.49;102019.91;4949367;28;20047;-75
2022/01/29 12:56:08;;;;;;;72.43;26.75;;;;;;;9.35;50.86;102006.59;4970431;28;20058;-75
2022/01/29 12:58:53;;;;;;;59.10;24.92;;;;;;;10.01;50.31;102009.06;4949807;28;20082;-75
2022/01/29 13:01:42;;;;;;;44.60;19.52;;;;;;;9.58;50.85;102006.00;4951467;28;20042;-75
2022/01/29 13:04:28;;;;;;;60.03;27.90;;;;;;;10.25;50.82;102004.63;4954270;28;20062;-75
2022/01/29 13:07:17;;;;;;;64.93;28.15;;;;;;;10.86;48.43;101990.59;4945237;28;20043;-75
2022/01/29 13:10:04;;;;;;;59.85;26.95;;;;;;;15.14;39.79;101985.22;4950163;28;20047;-75
2022/01/29 13:12:49;;;;;;;58.58;27.60;;;;;;;20.02;30.11;101985.19;4957830;28;20039;-77
2022/01/29 13:15:39;;;;;;;56.78;28.48;;;;;;;22.28;26.23;101993.13;4959139;28;20430;-77
2022/01/29 13:18:25;;;;;;;54.17;26.45;;;;;;;21.50;26.73;101985.75;4955720;28;20051;-75